Time;durP1;ratioP1;P1;durP2;ratioP2;P2;SDS_P1;SDS_P2;PMS_P1;PMS_P2;Temp;Humidity;BMP_temperature;BMP_pressure;BME280_temperature;BME280_humidity;BME280_pressure;Samples;Min_cycle;Max_cycle;Signal;HPM_P1;HPM_P2
2022/09/05 00:00:23;;;;;;;1.47;0.90;;;21.10;94.30;;;;;;6124111;23;20446;-78
2022/09/05 00:03:00;;;;;;;1.50;0.90;;;21.10;94.10;;;;;;6131470;23;20452;-78
2022/09/05 00:05:52;;;;;;;1.50;0.90;;;21.10;94.40;;;;;;6122277;23;20449;-78
2022/09/05 00:08:28;;;;;;;1.43;0.90;;;21.00;94.00;;;;;;6106885;23;20842;-78
2022/09/05 00:11:14;;;;;;;1.47;0.90;;;21.00;94.80;;;;;;6109420;23;20916;-78
2022/09/05 00:13:44;;;;;;;1.43;0.90;;;21.00;94.90;;;;;;6139885;23;20409;-78
2022/09/05 00:16:34;;;;;;;1.50;1.00;;;21.00;95.10;;;;;;6112937;23;20445;-78
2022/09/05 00:19:10;;;;;;;1.47;0.90;;;21.00;94.90;;;;;;6128603;23;20433;-78
2022/09/05 00:21:57;;;;;;;1.47;0.90;;;21.00;95.20;;;;;;6116974;23;20444;-78
2022/09/05 00:24:38;;;;;;;1.50;0.90;;;21.00;95.00;;;;;;6131390;23;20537;-78
2022/09/05 00:27:13;;;;;;;1.47;0.90;;;21.00;95.10;;;;;;6121792;23;20536;-78
2022/09/05 00:30:01;;;;;;;1.50;1.10;;;20.90;95.20;;;;;;6129236;23;20444;-78
2022/09/05 00:32:42;;;;;;;1.60;1.13;;;20.90;94.30;;;;;;6127647;23;20888;-78
2022/09/05 00:35:29;;;;;;;1.43;0.90;;;20.90;95.20;;;;;;6132636;23;20500;-78
2022/09/05 00:37:58;;;;;;;1.47;0.90;;;20.80;95.10;;;;;;6131380;23;20462;-78
2022/09/05 00:40:29;;;;;;;1.47;0.90;;;20.80;95.50;;;;;;6122680;23;20434;-78
2022/09/05 00:43:01;;;;;;;1.50;0.90;;;20.80;96.20;;;;;;6130074;23;20504;-78
2022/09/05 00:45:35;;;;;;;1.47;1.00;;;20.70;95.50;;;;;;6122653;23;20630;-78
2022/09/05 00:48:22;;;;;;;1.47;0.90;;;20.70;96.10;;;;;;6131922;23;20453;-78
2022/09/05 00:51:07;;;;;;;1.43;0.90;;;20.70;96.00;;;;;;6108748;23;20509;-78
2022/09/05 00:53:43;;;;;;;1.50;0.90;;;20.70;96.10;;;;;;6138800;23;20888;-79
2022/09/05 00:56:26;;;;;;;1.47;0.90;;;20.60;96.10;;;;;;6112376;23;20449;-78
2022/09/05 00:59:09;;;;;;;1.47;0.90;;;20.60;96.40;;;;;;6138944;23;20569;-78
2022/09/05 01:01:42;;;;;;;1.47;0.90;;;20.60;96.60;;;;;;6118574;23;21079;-79
2022/09/05 01:04:27;;;;;;;1.47;0.90;;;20.60;96.60;;;;;;6135245;23;20442;-78
2022/09/05 01:07:10;;;;;;;1.43;0.90;;;20.50;97.10;;;;;;6121503;23;20452;-78
2022/09/05 01:09:50;;;;;;;1.40;0.90;;;20.50;97.30;;;;;;6130235;23;20885;-79
2022/09/05 01:12:35;;;;;;;1.47;0.90;;;20.50;97.30;;;;;;6126385;23;20459;-78
2022/09/05 01:15:21;;;;;;;1.50;0.90;;;20.40;97.20;;;;;;6125104;23;20442;-79
2022/09/05 01:18:03;;;;;;;1.47;0.90;;;20.40;97.20;;;;;;6131740;23;20455;-78
2022/09/05 01:20:46;;;;;;;1.43;0.90;;;20.40;96.70;;;;;;6134028;23;20519;-79
2022/09/05 01:23:35;;;;;;;1.47;0.90;;;20.40;97.30;;;;;;6104673;23;20977;-79
2022/09/05 01:26:23;;;;;;;1.47;0.90;;;20.40;97.90;;;;;;6111409;23;20418;-79
2022/09/05 01:28:59;;;;;;;1.43;0.90;;;20.30;97.90;;;;;;6126134;23;20405;-78
2022/09/05 01:31:35;;;;;;;1.43;0.90;;;20.30;98.10;;;;;;6114631;23;20449;-79
2022/09/05 01:34:12;;;;;;;1.47;0.90;;;20.20;98.10;;;;;;6135275;23;20441;-78
2022/09/05 01:36:53;;;;;;;1.47;0.90;;;20.20;97.60;;;;;;6118860;23;20544;-78
2022/09/05 01:39:33;;;;;;;1.47;0.90;;;20.20;98.00;;;;;;6134203;23;20870;-78
2022/09/05 01:42:08;;;;;;;1.50;0.90;;;20.20;97.50;;;;;;6121769;23;20480;-78
2022/09/05 01:44:50;;;;;;;1.47;0.90;;;20.20;97.50;;;;;;6129189;23;20503;-78
2022/09/05 01:47:34;;;;;;;1.47;0.90;;;20.20;97.90;;;;;;6124613;23;20589;-78
2022/09/05 01:50:12;;;;;;;1.47;0.90;;;20.10;98.00;;;;;;6124279;23;20453;-79
2022/09/05 01:52:53;;;;;;;1.47;0.90;;;20.10;98.20;;;;;;6125942;23;20500;-78
2022/09/05 01:55:30;;;;;;;1.47;0.90;;;20.10;98.20;;;;;;6121481;23;20478;-78
2022/09/05 01:58:09;;;;;;;1.47;0.90;;;20.00;98.20;;;;;;6130721;23;20527;-78
2022/09/05 02:00:46;;;;;;;1.50;1.20;;;20.00;98.20;;;;;;6122974;23;20421;-78
2022/09/05 02:03:21;;;;;;;1.47;0.90;;;20.00;98.20;;;;;;6105725;23;20453;-78
2022/09/05 02:06:06;;;;;;;1.47;0.90;;;20.00;98.20;;;;;;6108387;23;20436;-78
2022/09/05 02:08:49;;;;;;;1.43;0.90;;;20.00;98.20;;;;;;6141768;23;20406;-78
2022/09/05 02:11:16;;;;;;;1.47;0.90;;;20.00;98.20;;;;;;6112335;23;21011;-79
2022/09/05 02:14:18;;;;;;;1.47;0.90;;;19.90;98.20;;;;;;6138364;23;20425;-78
2022/09/05 02:16:47;;;;;;;1.47;0.97;;;19.90;97.70;;;;;;6125832;23;20498;-79
2022/09/05 02:19:20;;;;;;;1.47;0.90;;;19.90;98.20;;;;;;6133365;23;20449;-78
2022/09/05 02:21:57;;;;;;;1.47;0.90;;;19.90;98.00;;;;;;6117517;23;20448;-78
2022/09/05 02:24:34;;;;;;;1.43;0.90;;;19.90;98.20;;;;;;6130770;23;20963;-78
2022/09/05 02:27:19;;;;;;;1.47;0.90;;;19.90;98.10;;;;;;6120859;23;20839;-78
2022/09/05 02:29:55;;;;;;;1.47;0.90;;;19.80;98.20;;;;;;6128205;23;20416;-79
2022/09/05 02:32:29;;;;;;;1.50;0.97;;;19.80;98.20;;;;;;6124896;23;20474;-78
2022/09/05 02:35:01;;;;;;;1.50;0.97;;;19.80;98.10;;;;;;6124665;23;20480;-78
2022/09/05 02:37:39;;;;;;;1.47;0.90;;;19.80;98.20;;;;;;6126040;23;20448;-79
2022/09/05 02:40:16;;;;;;;1.43;0.90;;;19.80;98.20;;;;;;6123697;23;20468;-78
2022/09/05 02:42:50;;;;;;;1.43;0.90;;;19.80;97.90;;;;;;6129458;23;20817;-78
2022/09/05 02:45:27;;;;;;;1.47;0.90;;;19.80;98.20;;;;;;6130681;23;20449;-78
2022/09/05 02:48:05;;;;;;;1.43;0.90;;;19.80;98.20;;;;;;6129460;23;20476;-78
2022/09/05 02:50:42;;;;;;;1.43;0.90;;;19.80;98.20;;;;;;6119463;23;20788;-79
2022/09/05 02:53:12;;;;;;;1.47;0.90;;;19.80;98.20;;;;;;6127189;23;20445;-79
2022/09/05 02:56:06;;;;;;;1.40;0.90;;;19.80;98.10;;;;;;6121834;23;20449;-78
2022/09/05 02:58:50;;;;;;;1.40;0.90;;;19.80;98.20;;;;;;6105764;23;20441;-78
2022/09/05 03:01:30;;;;;;;1.50;0.90;;;19.80;98.20;;;;;;6113023;23;21159;-78
2022/09/05 03:04:11;;;;;;;1.43;0.90;;;19.80;98.20;;;;;;6135820;23;20471;-78
2022/09/05 03:06:49;;;;;;;1.50;1.00;;;19.80;98.20;;;;;;6117028;23;21180;-78
2022/09/05 03:09:32;;;;;;;1.43;0.90;;;19.70;98.20;;;;;;6133688;23;20455;-79
2022/09/05 03:12:50;;;;;;;1.40;0.90;;;19.70;98.20;;;;;;6122383;23;20516;-78
2022/09/05 03:15:51;;;;;;;1.43;0.90;;;19.70;98.20;;;;;;6121351;23;20445;-79
2022/09/05 03:19:03;;;;;;;1.50;1.00;;;19.70;98.20;;;;;;6107913;23;20520;-78
2022/09/05 03:22:06;;;;;;;1.47;0.90;;;19.70;98.20;;;;;;6125684;23;20951;-78
2022/09/05 03:25:05;;;;;;;1.47;0.90;;;19.60;98.10;;;;;;6134229;23;20495;-78
2022/09/05 03:28:03;;;;;;;1.50;1.00;;;19.50;98.20;;;;;;6129537;23;20441;-78
2022/09/05 03:30:52;;;;;;;1.50;0.90;;;19.50;98.20;;;;;;6120192;23;20433;-78
2022/09/05 03:34:06;;;;;;;1.47;0.90;;;19.50;98.20;;;;;;6106038;23;20504;-78
2022/09/05 03:37:04;;;;;;;1.47;0.90;;;19.40;98.20;;;;;;6117858;23;20444;-78
2022/09/05 03:39:55;;;;;;;1.50;1.00;;;19.40;98.20;;;;;;6131211;23;20426;-78
2022/09/05 03:42:36;;;;;;;1.50;0.90;;;19.40;98.20;;;;;;6122485;23;20430;-78
2022/09/05 03:45:27;;;;;;;1.43;0.90;;;19.40;98.20;;;;;;6122266;23;20449;-78
2022/09/05 03:48:27;;;;;;;1.50;1.00;;;19.30;98.20;;;;;;6131796;23;20453;-78
2022/09/05 03:51:02;;;;;;;1.50;1.00;;;19.30;98.20;;;;;;6101262;23;20418;-78
2022/09/05 03:53:57;;;;;;;1.50;1.00;;;19.30;98.20;;;;;;6141492;23;20397;-79
2022/09/05 03:56:49;;;;;;;1.50;0.90;;;19.30;98.20;;;;;;6123304;23;20445;-79
2022/09/05 04:00:01;;;;;;;1.50;0.90;;;19.20;98.20;;;;;;6124314;23;20425;-78
2022/09/05 04:02:31;;;;;;;1.40;0.90;;;19.30;98.20;;;;;;6133804;23;20437;-78
2022/09/05 04:05:04;;;;;;;1.50;0.90;;;19.20;98.20;;;;;;6134927;23;20461;-78
2022/09/05 04:07:37;;;;;;;1.47;1.00;;;19.20;98.20;;;;;;6133566;23;20448;-78
2022/09/05 04:10:07;;;;;;;1.47;1.00;;;19.20;98.20;;;;;;6126900;23;21113;-79
2022/09/05 04:12:40;;;;;;;1.47;1.00;;;19.10;98.20;;;;;;6131079;23;20512;-78
2022/09/05 04:15:22;;;;;;;1.47;0.90;;;19.10;98.20;;;;;;6126113;23;20441;-78
2022/09/05 04:17:55;;;;;;;1.43;0.90;;;19.10;98.20;;;;;;6134697;23;20411;-79
2022/09/05 04:20:35;;;;;;;1.50;1.00;;;19.10;98.20;;;;;;6125493;23;20406;-78
2022/09/05 04:23:16;;;;;;;1.47;0.90;;;19.10;98.20;;;;;;6124508;23;20450;-79
2022/09/05 04:25:54;;;;;;;1.47;0.90;;;19.10;98.20;;;;;;6127468;23;20469;-77
2022/09/05 04:28:38;;;;;;;1.47;0.90;;;19.00;98.20;;;;;;6105228;23;20574;-77
2022/09/05 04:31:15;;;;;;;1.40;0.90;;;19.00;98.20;;;;;;6110093;23;20746;-78
2022/09/05 04:33:57;;;;;;;1.40;0.90;;;19.00;98.20;;;;;;6139037;23;20481;-78
2022/09/05 04:36:28;;;;;;;1.47;0.93;;;19.00;98.20;;;;;;6129245;23;20402;-77
2022/09/05 04:39:24;;;;;;;1.47;0.90;;;19.00;98.20;;;;;;6124258;23;20410;-77
2022/09/05 04:41:54;;;;;;;1.50;0.90;;;19.00;98.20;;;;;;6119906;23;20719;-77
2022/09/05 04:44:26;;;;;;;1.50;1.00;;;19.00;98.20;;;;;;6132136;23;20831;-77
2022/09/05 04:46:57;;;;;;;1.50;0.90;;;18.90;98.20;;;;;;6120619;23;20449;-77
2022/09/05 04:49:27;;;;;;;1.47;0.93;;;18.90;98.20;;;;;;6130045;23;20406;-77
2022/09/05 04:52:23;;;;;;;1.50;1.00;;;18.90;98.20;;;;;;6118701;23;20509;-78
2022/09/05 04:54:53;;;;;;;1.43;0.90;;;18.90;98.20;;;;;;6121723;23;20446;-79
2022/09/05 04:57:26;;;;;;;1.40;0.90;;;18.90;98.20;;;;;;6127770;23;21022;-78
2022/09/05 04:59:59;;;;;;;1.43;1.00;;;18.90;98.20;;;;;;6125376;23;20544;-78
2022/09/05 05:02:41;;;;;;;1.50;0.93;;;18.90;98.20;;;;;;6122062;23;20406;-78
2022/09/05 05:05:12;;;;;;;1.50;0.90;;;18.90;98.20;;;;;;6123029;23;20489;-78
2022/09/05 05:07:47;;;;;;;1.47;0.90;;;18.90;98.20;;;;;;6128865;23;20524;-78
2022/09/05 05:10:23;;;;;;;1.50;0.90;;;18.90;98.20;;;;;;6120496;23;20803;-78
2022/09/05 05:13:01;;;;;;;1.47;0.90;;;18.90;98.20;;;;;;6121251;23;20401;-78
2022/09/05 05:15:31;;;;;;;1.47;0.90;;;18.90;98.20;;;;;;6121734;23;20445;-78
2022/09/05 05:18:10;;;;;;;1.50;0.97;;;18.90;98.20;;;;;;6122245;23;20422;-79
2022/09/05 05:20:44;;;;;;;1.47;0.90;;;18.90;98.20;;;;;;6123644;23;20480;-78
2022/09/05 05:23:15;;;;;;;1.43;0.90;;;18.90;98.20;;;;;;6105611;23;20540;-78
2022/09/05 05:25:49;;;;;;;1.47;1.00;;;18.90;98.20;;;;;;6122007;23;20473;-79
2022/09/05 05:28:26;;;;;;;1.47;0.90;;;18.90;98.20;;;;;;6121626;23;20424;-78
2022/09/05 05:30:55;;;;;;;1.70;1.40;;;19.00;98.20;;;;;;6107984;23;20751;-78
2022/09/05 05:33:29;;;;;;;1.47;0.90;;;19.00;98.20;;;;;;6140614;23;20504;-79
2022/09/05 05:35:59;;;;;;;1.60;1.43;;;19.00;98.20;;;;;;6114690;23;20471;-77
2022/09/05 05:38:35;;;;;;;1.43;0.90;;;19.00;98.20;;;;;;6140982;23;20421;-77
2022/09/05 05:41:10;;;;;;;1.47;0.90;;;19.00;98.20;;;;;;6117605;23;20484;-77
2022/09/05 05:43:40;;;;;;;1.47;1.00;;;19.10;98.20;;;;;;6142156;23;20714;-80
2022/09/05 05:46:11;;;;;;;1.50;0.90;;;19.10;98.20;;;;;;6112761;23;20448;-77
2022/09/05 05:48:42;;;;;;;1.50;1.00;;;19.10;98.20;;;;;;6144378;23;20484;-77
2022/09/05 05:51:26;;;;;;;1.43;0.90;;;19.10;98.20;;;;;;6123107;23;20460;-77
2022/09/05 05:53:58;;;;;;;1.43;0.90;;;19.20;98.20;;;;;;6130246;23;20516;-77
2022/09/05 05:56:40;;;;;;;1.43;0.90;;;19.30;98.20;;;;;;6114333;23;20945;-78
2022/09/05 05:59:30;;;;;;;1.43;0.90;;;19.30;98.20;;;;;;6132771;23;20504;-78
2022/09/05 06:02:22;;;;;;;1.40;0.90;;;19.40;98.20;;;;;;6119523;23;20478;-78
2022/09/05 06:05:30;;;;;;;1.47;0.90;;;19.60;98.20;;;;;;6124894;23;20509;-78
2022/09/05 06:08:25;;;;;;;1.50;0.90;;;19.70;98.20;;;;;;6117399;23;20523;-78
2022/09/05 06:11:25;;;;;;;1.50;0.90;;;19.90;98.20;;;;;;6108013;23;20484;-78
2022/09/05 06:14:34;;;;;;;1.43;0.90;;;20.10;98.20;;;;;;6134040;23;20437;-78
2022/09/05 06:17:40;;;;;;;5.20;4.90;;;20.30;98.20;;;;;;6119900;23;20519;-78
2022/09/05 06:20:38;;;;;;;1.50;0.90;;;20.50;98.20;;;;;;6121544;23;20445;-78
2022/09/05 06:23:48;;;;;;;1.50;0.90;;;20.70;97.60;;;;;;6119122;23;20508;-78
2022/09/05 06:26:48;;;;;;;1.50;0.90;;;21.00;97.50;;;;;;6119146;23;20517;-78
2022/09/05 06:29:28;;;;;;;1.50;1.00;;;21.20;96.20;;;;;;6121788;23;20513;-77
2022/09/05 06:32:09;;;;;;;1.50;0.90;;;21.40;96.00;;;;;;6119115;23;20449;-78
2022/09/05 06:35:09;;;;;;;1.60;1.27;;;21.50;95.20;;;;;;6127013;23;20445;-78
2022/09/05 06:37:45;;;;;;;1.43;0.90;;;21.60;95.00;;;;;;6126931;23;20449;-78
2022/09/05 06:40:18;;;;;;;1.50;0.90;;;21.70;94.50;;;;;;6120682;23;20430;-78
2022/09/05 06:43:08;;;;;;;1.50;1.00;;;21.80;94.20;;;;;;6121020;23;20434;-78
2022/09/05 06:45:51;;;;;;;1.50;0.90;;;21.90;93.90;;;;;;6122146;23;20837;-78
2022/09/05 06:48:25;;;;;;;1.50;0.90;;;22.10;93.30;;;;;;6107031;23;20443;-78
2022/09/05 06:51:20;;;;;;;1.50;0.90;;;22.30;93.00;;;;;;6109136;23;20408;-78
2022/09/05 06:54:28;;;;;;;1.43;0.90;;;22.40;92.30;;;;;;6136672;23;20442;-78
2022/09/05 06:57:22;;;;;;;1.50;0.90;;;22.50;92.30;;;;;;6113318;23;20444;-79
2022/09/05 07:00:19;;;;;;;1.47;0.90;;;22.60;91.60;;;;;;6128948;23;20645;-78
2022/09/05 07:03:08;;;;;;;1.50;0.90;;;22.70;92.00;;;;;;6122404;23;20900;-79
2022/09/05 07:05:38;;;;;;;1.50;0.90;;;22.80;91.60;;;;;;6102532;23;20438;-79
2022/09/05 07:08:21;;;;;;;1.47;0.90;;;23.10;91.00;;;;;;6122681;23;20409;-79
2022/09/05 07:10:56;;;;;;;1.50;0.90;;;23.30;89.70;;;;;;6107892;23;20450;-79
2022/09/05 07:13:32;;;;;;;1.50;1.00;;;23.40;89.60;;;;;;6141352;23;20409;-76
2022/09/05 07:16:09;;;;;;;1.50;0.90;;;23.60;89.30;;;;;;6116278;23;20402;-76
2022/09/05 07:18:45;;;;;;;1.50;0.90;;;23.80;88.60;;;;;;6140033;23;20414;-77
2022/09/05 07:21:21;;;;;;;1.47;0.90;;;24.00;88.10;;;;;;6112290;23;20454;-77
2022/09/05 07:23:54;;;;;;;1.43;0.90;;;24.20;87.40;;;;;;6138408;23;20524;-76
2022/09/05 07:26:23;;;;;;;1.50;0.83;;;24.30;86.20;;;;;;6111094;23;20444;-78
2022/09/05 07:28:58;;;;;;;1.50;0.90;;;24.50;85.40;;;;;;6135470;23;20826;-77
2022/09/05 07:31:28;;;;;;;1.50;1.00;;;24.70;85.10;;;;;;6113862;23;20452;-77
2022/09/05 07:34:09;;;;;;;1.50;0.90;;;24.90;84.90;;;;;;6134267;23;20452;-76
2022/09/05 07:36:42;;;;;;;1.50;0.90;;;25.00;83.60;;;;;;6121792;23;20457;-77
2022/09/05 07:39:12;;;;;;;1.50;0.90;;;25.00;84.10;;;;;;6132139;23;20418;-78
2022/09/05 07:41:43;;;;;;;1.50;0.90;;;25.10;83.10;;;;;;6115906;23;20532;-78
2022/09/05 07:44:20;;;;;;;1.43;0.90;;;25.20;82.90;;;;;;6132083;23;20450;-78
2022/09/05 07:46:49;;;;;;;2.33;1.40;;;25.20;82.80;;;;;;6118903;23;20455;-77
2022/09/05 07:49:19;;;;;;;1.50;0.80;;;25.40;83.30;;;;;;6132827;23;20504;-78
2022/09/05 07:51:53;;;;;;;1.50;0.90;;;25.70;82.40;;;;;;6114586;23;20550;-78
2022/09/05 07:54:25;;;;;;;1.50;0.90;;;25.90;81.60;;;;;;6129803;23;20473;-78
2022/09/05 07:56:55;;;;;;;1.43;0.90;;;26.10;79.60;;;;;;6118479;23;21042;-78
2022/09/05 07:59:27;;;;;;;1.47;0.90;;;26.30;80.30;;;;;;6131641;23;20424;-78
2022/09/05 08:01:56;;;;;;;1.60;1.33;;;26.50;80.30;;;;;;6119334;23;20495;-78
2022/09/05 08:04:27;;;;;;;1.50;1.03;;;26.70;79.70;;;;;;6130394;23;20873;-78
2022/09/05 08:06:58;;;;;;;1.50;0.80;;;26.80;78.80;;;;;;6125753;23;20528;-77
2022/09/05 08:09:30;;;;;;;1.47;0.90;;;26.90;77.80;;;;;;6131379;23;20787;-80
2022/09/05 08:12:01;;;;;;;1.50;1.10;;;27.00;77.70;;;;;;6119796;23;20448;-78
2022/09/05 08:14:53;;;;;;;1.50;0.90;;;27.10;78.00;;;;;;6129078;23;20445;-78
2022/09/05 08:17:22;;;;;;;1.43;0.90;;;27.30;77.70;;;;;;6122023;23;20476;-78
2022/09/05 08:20:05;;;;;;;1.40;0.80;;;27.30;76.10;;;;;;6126224;23;20425;-77
2022/09/05 08:22:44;;;;;;;1.43;0.90;;;27.30;76.80;;;;;;6128032;23;20724;-77
2022/09/05 08:25:16;;;;;;;1.43;0.80;;;27.30;76.60;;;;;;6122479;23;20449;-77
2022/09/05 08:28:01;;;;;;;1.40;0.90;;;27.40;75.50;;;;;;6127612;23;20480;-77
2022/09/05 08:30:33;;;;;;;1.43;0.80;;;27.50;75.70;;;;;;6121191;23;20406;-77
2022/09/05 08:33:05;;;;;;;1.40;0.80;;;27.60;74.40;;;;;;6128432;23;20464;-76
2022/09/05 08:35:38;;;;;;;1.40;0.90;;;27.70;74.90;;;;;;6129735;23;20441;-77
2022/09/05 08:38:07;;;;;;;1.47;0.80;;;27.80;75.30;;;;;;6127752;23;20448;-77
2022/09/05 08:40:39;;;;;;;1.50;0.90;;;27.80;73.50;;;;;;6120472;23;20471;-77
2022/09/05 08:46:05;;;;;;;1.47;0.90;;;27.90;73.10;;;;;;6100520;23;20446;-76
2022/09/05 08:48:52;;;;;;;1.47;0.80;;;28.00;73.50;;;;;;6128881;23;20488;-76
2022/09/05 08:51:29;;;;;;;1.50;0.90;;;28.20;73.10;;;;;;6111341;23;20448;-77
2022/09/05 08:54:21;;;;;;;1.50;0.80;;;28.40;73.70;;;;;;6126341;23;20876;-76
2022/09/05 08:56:58;;;;;;;1.47;0.80;;;28.50;71.70;;;;;;6125894;23;20967;-76
2022/09/05 08:59:44;;;;;;;1.47;0.80;;;28.60;71.70;;;;;;6137907;23;20774;-77
2022/09/05 09:02:50;;;;;;;1.50;0.80;;;28.70;72.50;;;;;;6136403;23;20448;-77
2022/09/05 09:05:30;;;;;;;1.50;0.90;;;28.90;70.20;;;;;;6138842;23;20452;-79
2022/09/05 09:08:07;;;;;;;1.50;0.90;;;29.00;70.30;;;;;;6138526;23;20452;-77
2022/09/05 09:10:46;;;;;;;1.47;0.80;;;28.90;70.80;;;;;;6140386;23;20524;-76
2022/09/05 09:13:28;;;;;;;1.43;0.80;;;29.00;70.70;;;;;;6113465;23;20435;-78
2022/09/05 09:16:05;;;;;;;1.43;0.80;;;29.10;69.70;;;;;;6125077;23;20488;-77
2022/09/05 09:18:58;;;;;;;1.50;0.87;;;29.30;69.30;;;;;;6156991;23;20451;-77
2022/09/05 09:21:34;;;;;;;1.47;0.87;;;29.40;68.90;;;;;;6127470;23;20507;-77
2022/09/05 09:24:13;;;;;;;1.50;0.90;;;29.50;67.70;;;;;;6139223;23;20457;-77
2022/09/05 09:26:47;;;;;;;1.43;0.80;;;29.50;67.30;;;;;;6116225;23;20447;-76
2022/09/05 09:29:18;;;;;;;1.47;0.80;;;29.50;67.30;;;;;;6143522;23;20410;-76
2022/09/05 09:31:59;;;;;;;1.40;0.80;;;29.60;67.30;;;;;;6130529;23;20503;-76
2022/09/05 09:34:52;;;;;;;1.43;0.80;;;29.70;66.90;;;;;;6136377;23;20465;-78
2022/09/05 09:37:55;;;;;;;1.50;0.80;;;29.70;67.00;;;;;;6130970;23;20448;-77
2022/09/05 09:40:45;;;;;;;1.47;0.80;;;29.90;66.80;;;;;;6137262;23;20421;-77
2022/09/05 09:43:26;;;;;;;1.50;1.10;;;30.20;66.80;;;;;;6111793;23;20437;-78
2022/09/05 09:46:10;;;;;;;1.47;0.80;;;30.50;65.20;;;;;;6115589;23;20445;-79
2022/09/05 09:49:06;;;;;;;1.50;0.80;;;30.70;65.20;;;;;;6148919;23;20414;-77
2022/09/05 09:52:14;;;;;;;1.43;0.80;;;31.00;64.00;;;;;;6123786;23;20468;-77
2022/09/05 09:55:14;;;;;;;1.47;0.80;;;31.40;62.80;;;;;;6109803;23;20460;-77
2022/09/05 09:58:03;;;;;;;2.90;1.57;;;31.60;60.20;;;;;;6086042;23;20451;-77
2022/09/05 10:00:50;;;;;;;1.43;0.80;;;31.60;60.70;;;;;;6122111;23;21098;-77
2022/09/05 10:04:02;;;;;;;1.50;0.80;;;31.70;62.00;;;;;;6104254;23;20441;-78
2022/09/05 10:10:07;;;;;;;1.50;0.90;;;32.30;59.20;;;;;;6124026;23;20769;-77
2022/09/05 10:13:19;;;;;;;1.47;0.80;;;32.00;59.00;;;;;;6134409;23;20461;-78
2022/09/05 10:16:33;;;;;;;;;;;;;;;;;;;;;
2022/09/05 10:19:34;;;;;;;1.43;0.80;;;31.90;60.60;;;;;;6109054;23;20421;-78
2022/09/05 10:22:20;;;;;;;1.50;0.80;;;32.30;60.30;;;;;;6128243;23;20454;-78
2022/09/05 10:25:10;;;;;;;1.43;0.80;;;32.30;59.50;;;;;;6134074;23;20441;-76
2022/09/05 10:28:03;;;;;;;1.50;0.80;;;32.30;59.40;;;;;;6134506;23;20475;-79
2022/09/05 10:30:58;;;;;;;1.43;0.80;;;32.60;56.20;;;;;;6139093;23;20425;-78
2022/09/05 10:34:04;;;;;;;1.40;0.80;;;32.80;56.90;;;;;;6115588;23;20429;-77
2022/09/05 10:36:53;;;;;;;1.50;0.90;;;32.60;55.90;;;;;;6129692;23;20485;-76
2022/09/05 10:39:38;;;;;;;1.50;0.93;;;32.80;57.90;;;;;;6152094;23;20429;-78
2022/09/05 10:42:14;;;;;;;1.43;0.80;;;33.00;56.70;;;;;;6128104;23;20458;-79
2022/09/05 10:44:55;;;;;;;1.43;0.80;;;33.10;57.10;;;;;;6136620;23;20449;-78
2022/09/05 10:47:37;;;;;;;1.50;0.80;;;33.20;56.80;;;;;;6116626;23;20273;-77
2022/09/05 10:50:25;;;;;;;1.47;0.80;;;33.30;55.70;;;;;;6138378;23;20216;-79
2022/09/05 10:56:35;;;;;;;1.47;0.80;;;33.50;55.00;;;;;;6116713;23;20241;-79
2022/09/05 10:59:53;;;;;;;1.43;0.80;;;33.50;55.90;;;;;;6156942;23;20182;-80
2022/09/05 11:02:30;;;;;;;1.43;0.80;;;33.80;55.80;;;;;;6024365;23;20279;-78
2022/09/05 11:05:25;;;;;;;1.43;0.80;;;33.90;55.30;;;;;;6142866;23;20196;-78
2022/09/05 11:08:14;;;;;;;1.40;0.80;;;34.10;54.20;;;;;;6140632;23;20224;-79
2022/09/05 11:14:01;;;;;;;1.40;0.80;;;34.30;54.50;;;;;;6113931;23;20208;-79
2022/09/05 11:16:49;;;;;;;1.40;0.80;;;34.50;54.50;;;;;;6124545;23;20579;-78
2022/09/05 11:19:28;;;;;;;1.43;0.80;;;34.70;53.80;;;;;;6141296;23;20162;-78
2022/09/05 11:22:02;;;;;;;1.43;0.80;;;34.80;54.40;;;;;;6135970;23;20215;-79
2022/09/05 11:24:40;;;;;;;1.40;0.80;;;34.90;53.70;;;;;;6148549;23;20605;-79
2022/09/05 11:27:21;;;;;;;1.45;0.80;;;35.00;52.30;;;;;;6131173;23;20208;-80
2022/09/05 11:36:06;;;;;;;1.40;0.80;;;34.70;53.20;;;;;;6104511;23;20217;-78
2022/09/05 11:39:10;;;;;;;1.45;0.80;;;34.80;53.40;;;;;;6124034;23;20641;-78
2022/09/05 11:42:19;;;;;;;1.42;0.80;;;35.10;53.30;;;;;;6114799;23;20213;-76
2022/09/05 11:45:25;;;;;;;1.40;0.80;;;35.20;52.60;;;;;;6134376;23;20342;-77
2022/09/05 11:48:32;;;;;;;1.40;0.80;;;35.40;52.80;;;;;;6079060;23;20316;-76
2022/09/05 11:51:28;;;;;;;1.40;0.80;;;35.50;52.50;;;;;;6124943;23;20272;-76
2022/09/05 11:54:36;;;;;;;1.40;0.80;;;35.50;52.00;;;;;;6153227;23;20231;-77
2022/09/05 11:57:23;;;;;;;1.40;0.80;;;35.60;51.90;;;;;;6132917;23;20208;-76
2022/09/05 12:00:16;;;;;;;1.42;0.80;;;35.60;52.10;;;;;;6142391;23;20714;-75
2022/09/05 12:03:20;;;;;;;1.40;0.80;;;35.70;51.30;;;;;;6135287;23;20291;-75
2022/09/05 12:09:26;;;;;;;1.40;0.80;;;35.70;50.60;;;;;;6054615;23;20649;-76
2022/09/05 12:12:11;;;;;;;1.40;0.80;;;35.50;49.00;;;;;;6130313;23;20273;-76
2022/09/05 12:14:45;;;;;;;1.40;0.80;;;35.30;50.70;;;;;;6144488;23;20628;-75
2022/09/05 12:17:33;;;;;;;1.40;0.80;;;35.30;51.30;;;;;;6131993;23;20215;-76
2022/09/05 12:20:15;;;;;;;1.40;0.80;;;35.50;50.70;;;;;;6140521;23;20249;-76
2022/09/05 12:22:57;;;;;;;1.40;0.80;;;35.60;51.50;;;;;;6137891;23;20621;-76
2022/09/05 12:25:47;;;;;;;1.40;0.80;;;35.80;51.00;;;;;;6138595;23;20184;-75
2022/09/05 12:28:41;;;;;;;1.40;0.80;;;35.80;50.20;;;;;;6111897;23;20199;-76
2022/09/05 12:31:20;;;;;;;1.40;0.80;;;36.10;50.40;;;;;;6119862;23;20201;-77
2022/09/05 12:33:50;;;;;;;1.40;0.80;;;36.10;49.80;;;;;;6154093;23;20172;-77
2022/09/05 12:36:33;;;;;;;1.40;0.80;;;36.10;49.90;;;;;;6124663;23;20286;-78
2022/09/05 12:39:07;;;;;;;1.40;0.80;;;36.10;49.20;;;;;;6138002;23;20169;-76
2022/09/05 12:45:35;;;;;;;1.40;0.80;;;35.80;50.10;;;;;;6125716;23;20202;-76
2022/09/05 12:48:11;;;;;;;1.40;0.80;;;35.50;51.40;;;;;;6132659;23;20258;-75
2022/09/05 12:50:46;;;;;;;1.40;0.80;;;35.30;49.50;;;;;;6122653;23;20911;-75
2022/09/05 12:53:18;;;;;;;1.40;0.80;;;34.80;50.40;;;;;;6130142;23;20268;-76
2022/09/05 12:55:52;;;;;;;1.40;0.80;;;34.50;50.00;;;;;;6122227;23;20193;-76
2022/09/05 12:58:24;;;;;;;1.40;0.80;;;34.60;51.30;;;;;;6106060;23;20281;-76
2022/09/05 13:01:01;;;;;;;1.40;0.80;;;34.70;50.20;;;;;;6109086;23;20205;-76
2022/09/05 13:03:33;;;;;;;1.40;0.80;;;34.90;50.50;;;;;;6143110;23;20185;-74
2022/09/05 13:06:08;;;;;;;1.40;0.80;;;34.90;50.60;;;;;;6107768;23;20158;-74
2022/09/05 13:08:46;;;;;;;1.40;0.80;;;35.10;50.10;;;;;;6141436;23;20169;-75
2022/09/05 13:11:18;;;;;;;1.40;0.80;;;35.00;49.90;;;;;;6119859;23;20216;-76
2022/09/05 13:13:50;;;;;;;1.40;0.80;;;35.00;50.70;;;;;;6148901;23;20177;-76
2022/09/05 13:16:24;;;;;;;1.40;0.80;;;35.10;50.00;;;;;;6122175;23;20773;-76
2022/09/05 13:19:06;;;;;;;1.38;0.80;;;35.40;50.20;;;;;;6138544;23;20181;-76
2022/09/05 13:21:44;;;;;;;1.40;0.80;;;35.70;50.00;;;;;;6123313;23;20217;-76
2022/09/05 13:24:20;;;;;;;1.40;0.80;;;35.80;49.20;;;;;;6132441;23;20181;-75
2022/09/05 13:26:55;;;;;;;1.40;0.80;;;36.00;49.90;;;;;;6123146;23;20259;-75
2022/09/05 13:29:25;;;;;;;1.40;0.80;;;35.80;48.40;;;;;;6131434;23;20185;-75
2022/09/05 13:32:08;;;;;;;1.35;0.80;;;35.80;48.80;;;;;;6118077;23;20702;-74
2022/09/05 13:34:42;;;;;;;1.40;0.80;;;35.80;47.50;;;;;;6128495;23;20272;-75
2022/09/05 13:37:24;;;;;;;1.40;0.80;;;35.50;49.90;;;;;;6124646;23;20208;-75
2022/09/05 13:39:55;;;;;;;1.40;0.80;;;35.30;48.00;;;;;;6135130;23;20173;-75
2022/09/05 13:42:24;;;;;;;1.40;0.80;;;35.00;48.70;;;;;;6128373;23;20263;-76
2022/09/05 13:44:55;;;;;;;1.40;0.80;;;34.80;48.60;;;;;;6136999;23;20174;-75
2022/09/05 13:48:08;;;;;;;1.40;0.80;;;34.60;49.10;;;;;;6125884;23;20204;-76
2022/09/05 13:50:39;;;;;;;1.40;0.90;;;34.60;50.00;;;;;;6117428;23;20555;-76
2022/09/05 13:53:20;;;;;;;1.40;0.80;;;34.60;49.80;;;;;;6132076;23;20236;-75
2022/09/05 13:55:52;;;;;;;1.40;0.80;;;34.70;49.90;;;;;;6119886;23;20190;-76
2022/09/05 13:58:33;;;;;;;1.40;0.80;;;34.90;48.70;;;;;;6145255;23;20205;-76
2022/09/05 14:01:32;;;;;;;1.40;0.80;;;34.70;51.20;;;;;;6116339;23;20200;-74
2022/09/05 14:04:42;;;;;;;1.40;0.80;;;35.00;49.90;;;;;;6133834;23;20510;-74
2022/09/05 14:07:43;;;;;;;1.40;0.80;;;35.10;48.70;;;;;;6124183;23;20209;-75
2022/09/05 14:10:45;;;;;;;1.40;0.80;;;34.70;48.60;;;;;;6134701;23;20463;-77
2022/09/05 14:13:18;;;;;;;1.50;1.00;;;34.50;50.90;;;;;;6106696;23;20196;-77
2022/09/05 14:15:53;;;;;;;1.40;0.80;;;34.00;49.20;;;;;;6135603;23;20233;-77
2022/09/05 14:18:23;;;;;;;1.40;0.80;;;33.50;50.10;;;;;;6112385;23;20208;-77
2022/09/05 14:21:17;;;;;;;1.40;0.80;;;33.30;50.10;;;;;;6122345;23;20268;-77
2022/09/05 14:23:52;;;;;;;1.40;0.80;;;32.60;50.70;;;;;;6153744;23;20185;-77
2022/09/05 14:26:28;;;;;;;1.43;0.80;;;32.50;51.30;;;;;;6123009;23;20227;-77
2022/09/05 14:29:32;;;;;;;1.40;0.80;;;32.30;50.50;;;;;;6140447;23;20427;-77
2022/09/05 14:32:50;;;;;;;1.40;0.80;;;32.00;51.50;;;;;;6132127;23;20452;-76